Afton, California
Current Conditions -  °F | °C
As of 6:30 PM on Saturday 22 Nov 2014 (Local Time) from KOVE Reporting Station
Moderate Fog Moderate Fog  
Wind Chill: 10°   Ceiling: 300
Heat Index: 10°   Visibility: 0.5mi
Dew Point:   Wind: 3mph
Humidity: 93%   Direction: 30°NNE
Pressure: 30.2"   Gusts: NA
Location:  39.4608°N, 121.937°W
Report Text: KOVE 230230Z AUTO 03003KT 1/2SM FG VV003 10/09 A3020 RMK AO2 T01000089
Loading
Personal Weather Stations






























Interactive Weather Map New forecast layout! Learn more

10-Day Weather Forecast

Advertisements
Track Severe Weather on mobile